Brazoria County Airport Angleton, Lake Jackson US
ICAO: KLBX
IATA: LBX
Category: Medium
Scheduled Services: No

Elevation: 25 ft
TransAlt. 18000 ft.

Airport Communications:
HOUSTON APP/DEP:134.45
ASOS:119.925
CLNC DEL:125.2
CTAF/UNICOM:123

KLBX Zoom In..

If you have problems with the map follow the link
https://www.worldairports.se/pages/airport.php?
ICAO=KLBX

Runways:

(A) RW 17 length 7000 ft width 100 ft
ILS 109.10 / hdg 175

(B) RW 35 length 7000 ft width 100 ft
---- / hdg 355

Location; KLBX
Day. 25 / Time. 21.53 Zulu
* Altimeter: 30.08
* Temperature: 18° c. 64.4°f.
* Wind from: 120° Speed 07 kn.
Dewpoint: 13° c.
Visibility: 10 Statute Miles.
Clouds: Broken 7000 ft.
Clouds: Overcast 9000 ft.

KLBX 252153Z AUTO 12007KT 10SM BKN070 OVC090 18/13 A3008 RMK AO2 SLP184 T01780128


Wind From 120°
Speed 07 kn.

 
 
jpsmedia worldairports.se 2020   terms of use